createdAt,value
2022-12-23T00:01:24.281Z,16.95
2022-12-23T00:03:57.851Z,13.40
2022-12-23T00:06:25.291Z,12.90
2022-12-23T00:08:58.352Z,15.35
2022-12-23T00:11:27.725Z,15.38
2022-12-23T00:14:21.177Z,13.65
2022-12-23T00:19:24.306Z,10.73
2022-12-23T00:21:51.554Z,17.23
2022-12-23T00:24:18.817Z,9.57
2022-12-23T00:26:46.079Z,13.60
2022-12-23T00:29:15.505Z,11.15
2022-12-23T00:31:42.897Z,11.38
2022-12-23T00:34:13.079Z,14.20
2022-12-23T00:36:42.648Z,11.40
2022-12-23T00:39:44.877Z,9.65
2022-12-23T00:42:38.298Z,12.65
2022-12-23T00:45:19.527Z,10.00
2022-12-23T00:48:06.624Z,11.52
2022-12-23T00:50:37.213Z,12.40
2022-12-23T00:53:05.821Z,10.85
2022-12-23T00:55:33.103Z,14.50
2022-12-23T00:58:02.599Z,9.88
2022-12-23T01:00:48.652Z,5.97
2022-12-23T01:03:35.101Z,10.68
2022-12-23T01:06:05.483Z,8.45
2022-12-23T01:08:34.968Z,7.90
2022-12-23T01:11:09.887Z,10.05
2022-12-23T01:13:39.898Z,7.57
2022-12-23T01:16:16.819Z,12.23
2022-12-23T01:18:45.042Z,6.78
2022-12-23T01:21:12.945Z,5.03
2022-12-23T01:23:40.297Z,7.53
2022-12-23T01:26:08.792Z,4.22
2022-12-23T01:28:36.501Z,5.25
2022-12-23T01:31:05.960Z,4.53
2022-12-23T01:33:33.679Z,8.93
2022-12-23T01:36:08.045Z,6.50
2022-12-23T01:38:38.471Z,6.28
2022-12-23T01:41:05.730Z,6.03
2022-12-23T01:43:51.131Z,4.43
2022-12-23T01:46:22.094Z,5.47
2022-12-23T01:48:52.325Z,7.95
2022-12-23T01:51:27.064Z,10.15
2022-12-23T01:54:01.177Z,6.70
2022-12-23T01:56:36.783Z,8.02
2022-12-23T01:59:10.505Z,6.70
2022-12-23T02:01:56.879Z,10.13
2022-12-23T02:04:25.881Z,8.15
2022-12-23T02:07:27.680Z,8.43
2022-12-23T02:09:59.896Z,8.07
2022-12-23T02:13:04.800Z,7.72
2022-12-23T02:16:03.022Z,10.23
2022-12-23T02:18:50.492Z,6.90
2022-12-23T02:21:48.074Z,8.65
2022-12-23T02:24:39.702Z,5.40
2022-12-23T02:27:18.902Z,4.38
2022-12-23T02:30:27.338Z,4.57
2022-12-23T02:33:25.854Z,5.40
2022-12-23T02:36:19.274Z,7.63
2022-12-23T02:39:10.431Z,8.43
2022-12-23T02:41:54.533Z,8.60
2022-12-23T02:44:49.841Z,8.88
2022-12-23T02:47:24.760Z,9.15
2022-12-23T02:49:55.796Z,8.02
2022-12-23T02:52:31.679Z,8.50
2022-12-23T02:55:09.324Z,5.30
2022-12-23T02:57:40.508Z,8.15
2022-12-23T03:00:08.502Z,6.13
2022-12-23T03:02:39.801Z,6.35
2022-12-23T03:05:52.554Z,6.07
2022-12-23T03:08:29.600Z,7.03
2022-12-23T03:11:10.350Z,4.53
2022-12-23T03:13:55.765Z,6.35
2022-12-23T03:16:29.658Z,8.25
2022-12-23T03:19:09.044Z,6.13
2022-12-23T03:21:42.173Z,11.15
2022-12-23T03:24:16.191Z,10.13
2022-12-23T03:26:52.454Z,5.32
2022-12-23T03:29:51.595Z,9.85
2022-12-23T03:32:21.293Z,8.48
2022-12-23T03:34:52.351Z,6.60
2022-12-23T03:37:23.725Z,9.52
2022-12-23T03:40:16.173Z,7.63
2022-12-23T03:42:47.824Z,8.95
2022-12-23T03:45:38.779Z,7.32
2022-12-23T03:48:19.114Z,10.00
2022-12-23T03:50:51.811Z,5.70
2022-12-23T03:53:28.287Z,8.53
2022-12-23T03:56:10.467Z,7.60
2022-12-23T03:59:10.507Z,10.35
2022-12-23T04:01:53.121Z,6.45
2022-12-23T04:04:46.302Z,5.78
2022-12-23T04:07:30.190Z,9.60
2022-12-23T04:09:58.548Z,8.32
2022-12-23T04:12:28.031Z,6.47
2022-12-23T04:14:57.998Z,7.70
2022-12-23T04:17:27.388Z,4.53
2022-12-23T04:19:55.360Z,6.05
2022-12-23T04:22:22.595Z,7.93
2022-12-23T04:24:49.814Z,7.43
2022-12-23T04:27:17.355Z,6.90
2022-12-23T04:29:44.651Z,9.95
2022-12-23T04:32:14.198Z,5.90
2022-12-23T04:34:41.523Z,6.68
2022-12-23T04:37:12.405Z,6.93
2022-12-23T04:39:44.593Z,5.93
2022-12-23T04:42:11.834Z,5.18
2022-12-23T04:44:39.133Z,9.25
2022-12-23T04:47:09.015Z,4.38
2022-12-23T04:49:36.381Z,7.28
2022-12-23T04:52:03.777Z,6.20
2022-12-23T04:54:34.450Z,4.75
2022-12-23T04:57:04.089Z,7.55
2022-12-23T04:59:31.569Z,9.32
2022-12-23T05:02:01.633Z,8.68
2022-12-23T05:04:29.098Z,5.75
2022-12-23T05:06:56.468Z,4.70
2022-12-23T05:09:23.809Z,10.40
2022-12-23T05:11:51.082Z,8.00
2022-12-23T05:14:18.314Z,5.57
2022-12-23T05:16:50.293Z,6.25
2022-12-23T05:19:19.988Z,5.65
2022-12-23T05:21:49.334Z,6.55
2022-12-23T05:24:19.040Z,6.10
2022-12-23T05:26:59.282Z,6.35
2022-12-23T05:29:29.465Z,7.25
2022-12-23T05:31:59.335Z,10.73
2022-12-23T05:34:26.713Z,10.38
2022-12-23T05:36:53.946Z,6.03
2022-12-23T05:39:21.184Z,7.03
2022-12-23T05:41:48.459Z,6.88
2022-12-23T05:44:15.714Z,7.68
2022-12-23T05:46:43.046Z,11.05
2022-12-23T05:49:10.444Z,8.55
2022-12-23T05:51:37.907Z,8.60
2022-12-23T05:54:05.177Z,12.90
2022-12-23T05:56:34.890Z,12.80
2022-12-23T05:59:02.182Z,8.00
2022-12-23T06:01:31.566Z,9.38
2022-12-23T06:04:01.243Z,10.07
2022-12-23T06:06:28.819Z,9.52
2022-12-23T06:08:59.836Z,11.82
2022-12-23T06:11:30.051Z,10.18
2022-12-23T06:13:57.352Z,9.20
2022-12-23T06:16:24.722Z,9.43
2022-12-23T06:18:57.895Z,7.93
2022-12-23T06:21:28.006Z,11.10
2022-12-23T06:23:57.617Z,8.27
2022-12-23T06:26:29.545Z,7.38
2022-12-23T06:28:59.234Z,11.07
2022-12-23T06:31:26.555Z,7.90
2022-12-23T06:33:53.829Z,8.13
2022-12-23T06:36:21.079Z,7.60
2022-12-23T06:38:53.419Z,5.63
2022-12-23T06:41:23.187Z,9.38
2022-12-23T06:43:54.238Z,6.20
2022-12-23T06:46:22.044Z,8.75
2022-12-23T06:48:49.324Z,8.95
2022-12-23T06:51:18.951Z,8.45
2022-12-23T06:53:48.751Z,7.28
2022-12-23T06:56:18.571Z,8.70
2022-12-23T06:58:45.870Z,6.30
2022-12-23T07:01:13.273Z,7.75
2022-12-23T07:03:42.014Z,6.50
2022-12-23T07:06:09.672Z,6.18
2022-12-23T07:08:37.961Z,6.72
2022-12-23T07:11:07.294Z,5.45
2022-12-23T07:13:35.800Z,7.13
2022-12-23T07:16:11.297Z,7.38
2022-12-23T07:18:39.024Z,8.27
2022-12-23T07:21:14.012Z,5.80
2022-12-23T07:23:48.304Z,7.30
2022-12-23T07:26:15.855Z,9.43
2022-12-23T07:28:49.154Z,5.93
2022-12-23T07:31:18.914Z,4.95
2022-12-23T07:33:48.907Z,4.55
2022-12-23T07:36:16.148Z,10.90
2022-12-23T07:38:43.478Z,6.03
2022-12-23T07:41:10.744Z,8.18
2022-12-23T07:43:38.010Z,8.82
2022-12-23T07:46:11.377Z,4.93
2022-12-23T07:48:42.379Z,8.45
2022-12-23T07:51:11.832Z,7.82
2022-12-23T07:53:41.735Z,7.35
2022-12-23T07:56:09.140Z,9.35
2022-12-23T07:58:36.404Z,7.78
2022-12-23T08:01:08.109Z,4.50
2022-12-23T08:03:36.805Z,6.40
2022-12-23T08:06:15.234Z,8.60
2022-12-23T08:08:49.423Z,4.72
2022-12-23T08:11:19.294Z,6.50
2022-12-23T08:13:48.238Z,7.38
2022-12-23T08:16:17.855Z,5.82
2022-12-23T08:18:47.437Z,6.53
2022-12-23T08:21:19.003Z,8.32
2022-12-23T08:23:47.415Z,7.53
2022-12-23T08:26:16.297Z,6.00
2022-12-23T08:28:47.150Z,8.55
2022-12-23T08:31:26.102Z,8.80
2022-12-23T08:33:56.091Z,10.10
2022-12-23T08:36:30.245Z,12.18
2022-12-23T08:39:03.163Z,17.80
2022-12-23T08:41:33.524Z,9.40
2022-12-23T08:44:00.834Z,11.18
2022-12-23T08:46:28.929Z,10.68
2022-12-23T08:48:58.827Z,9.20
2022-12-23T08:51:27.557Z,9.10
2022-12-23T08:54:00.449Z,8.98
2022-12-23T08:56:40.117Z,9.98
2022-12-23T08:59:18.255Z,9.43
2022-12-23T09:01:49.505Z,10.20
2022-12-23T09:04:17.055Z,15.02
2022-12-23T09:06:45.472Z,13.02
2022-12-23T09:09:16.324Z,15.15
2022-12-23T09:11:46.306Z,14.50
2022-12-23T09:14:13.879Z,6.90
2022-12-23T09:16:41.258Z,10.70
2022-12-23T09:19:08.844Z,12.73
2022-12-23T09:21:40.795Z,10.75
2022-12-23T09:24:08.087Z,11.30
2022-12-23T09:26:37.725Z,7.80
2022-12-23T09:29:07.460Z,10.95
2022-12-23T09:31:37.779Z,11.80
2022-12-23T09:34:06.343Z,10.43
2022-12-23T09:36:36.662Z,5.53
2022-12-23T09:39:06.164Z,5.45
2022-12-23T09:41:43.918Z,11.10
2022-12-23T09:44:29.470Z,7.68
2022-12-23T09:47:09.320Z,11.02
2022-12-23T09:49:45.623Z,10.20
2022-12-23T09:52:19.378Z,4.45
2022-12-23T09:54:52.456Z,9.15
2022-12-23T09:57:36.258Z,7.22
2022-12-23T10:00:09.637Z,6.65
2022-12-23T10:02:45.443Z,5.63
2022-12-23T10:05:48.778Z,7.82
2022-12-23T10:08:25.030Z,7.38
2022-12-23T10:11:06.282Z,7.38
2022-12-23T10:13:42.073Z,7.72
2022-12-23T10:16:22.625Z,7.03
2022-12-23T10:19:12.755Z,7.55
2022-12-23T10:21:49.290Z,8.57
2022-12-23T10:24:25.317Z,7.85
2022-12-23T10:27:04.798Z,9.75
2022-12-23T10:29:33.825Z,7.47
2022-12-23T10:32:08.276Z,5.97
2022-12-23T10:34:43.350Z,5.32
2022-12-23T10:37:32.762Z,5.65
2022-12-23T10:40:05.668Z,8.23
2022-12-23T10:42:49.293Z,8.23
2022-12-23T10:45:23.411Z,7.43
2022-12-23T10:48:25.757Z,12.45
2022-12-23T10:51:00.141Z,10.73
2022-12-23T10:53:49.360Z,8.10
2022-12-23T10:56:17.364Z,9.98
2022-12-23T10:58:48.899Z,9.48
2022-12-23T11:01:26.086Z,9.95
2022-12-23T11:03:57.324Z,8.50
2022-12-23T11:06:34.850Z,8.15
2022-12-23T11:09:05.583Z,9.40
2022-12-23T11:12:07.051Z,7.72
2022-12-23T11:14:40.270Z,10.90
2022-12-23T11:17:36.042Z,6.72
2022-12-23T11:20:20.119Z,9.95
2022-12-23T11:22:50.214Z,5.68
2022-12-23T11:25:41.952Z,7.45
2022-12-23T11:28:14.980Z,5.65
2022-12-23T11:30:56.652Z,8.57
2022-12-23T11:33:36.625Z,9.73
2022-12-23T11:36:15.528Z,6.57
2022-12-23T11:38:59.874Z,5.03
2022-12-23T11:41:29.347Z,8.02
2022-12-23T11:44:00.358Z,5.40
2022-12-23T11:46:34.946Z,4.50
2022-12-23T11:49:25.468Z,5.55
2022-12-23T11:52:07.755Z,4.85
2022-12-23T11:54:35.242Z,6.97
2022-12-23T11:57:05.868Z,7.00
2022-12-23T11:59:48.839Z,3.15
2022-12-23T12:02:43.897Z,2.70
2022-12-23T12:05:33.640Z,4.90
2022-12-23T12:08:05.805Z,4.90
2022-12-23T12:10:37.905Z,4.35
2022-12-23T12:13:49.068Z,3.80
2022-12-23T12:16:40.549Z,5.60
2022-12-23T12:19:51.604Z,6.45
2022-12-23T12:22:37.706Z,6.03
2022-12-23T12:25:45.790Z,4.88
2022-12-23T12:28:25.989Z,6.28
2022-12-23T12:31:01.991Z,4.82
2022-12-23T12:33:41.092Z,2.80
2022-12-23T12:36:40.728Z,3.03
2022-12-23T12:39:23.524Z,3.40
2022-12-23T12:42:16.013Z,3.70
2022-12-23T12:45:12.012Z,3.38
2022-12-23T12:48:16.075Z,5.40
2022-12-23T12:51:09.057Z,6.30
2022-12-23T12:53:48.264Z,3.47
2022-12-23T12:56:28.484Z,5.65
2022-12-23T12:58:58.451Z,3.72
2022-12-23T13:01:44.625Z,1.73
2022-12-23T13:04:16.887Z,1.60
2022-12-23T13:07:22.884Z,0.95
2022-12-23T13:10:18.385Z,2.83
2022-12-23T13:13:01.971Z,1.63
2022-12-23T13:16:13.789Z,1.63
2022-12-23T13:18:51.655Z,1.15
2022-12-23T13:21:27.816Z,1.48
2022-12-23T13:24:03.624Z,0.95
2022-12-23T13:27:02.185Z,1.17
2022-12-23T13:29:44.191Z,1.77
2022-12-23T13:32:39.251Z,1.17
2022-12-23T13:35:44.087Z,1.52
2022-12-23T13:38:48.258Z,1.25
2022-12-23T13:41:24.488Z,1.58
2022-12-23T13:43:58.369Z,0.90
2022-12-23T13:46:40.435Z,1.77
2022-12-23T13:49:15.990Z,1.73
2022-12-23T13:52:00.541Z,1.23
2022-12-23T13:55:06.066Z,1.83
2022-12-23T13:57:59.482Z,2.35
2022-12-23T14:00:34.445Z,1.88
2022-12-23T14:03:23.603Z,4.10
2022-12-23T14:05:53.266Z,3.08
2022-12-23T14:08:43.524Z,1.95
2022-12-23T14:11:13.095Z,2.35
2022-12-23T14:14:07.433Z,3.45
2022-12-23T14:16:37.423Z,2.30
2022-12-23T14:19:29.807Z,1.55
2022-12-23T14:22:39.841Z,1.63
2022-12-23T14:25:28.882Z,2.72
2022-12-23T14:28:14.840Z,2.55
2022-12-23T14:30:46.723Z,2.90
2022-12-23T14:33:24.939Z,3.72
2022-12-23T14:35:52.186Z,1.15
2022-12-23T14:38:36.460Z,1.13
2022-12-23T14:41:39.994Z,1.40
2022-12-23T14:44:22.171Z,2.97
2022-12-23T14:46:49.374Z,2.97
2022-12-23T14:49:40.884Z,1.58
2022-12-23T14:52:44.726Z,5.68
2022-12-23T14:55:42.504Z,4.07
2022-12-23T14:58:26.183Z,4.85
2022-12-23T15:01:09.179Z,1.73
2022-12-23T15:03:43.210Z,6.68
2022-12-23T15:06:34.493Z,3.70
2022-12-23T15:09:08.375Z,3.83
2022-12-23T15:11:38.681Z,4.65
2022-12-23T15:14:16.157Z,6.50
2022-12-23T15:16:45.309Z,5.30
2022-12-23T15:19:36.263Z,5.72
2022-12-23T15:22:22.154Z,6.35
2022-12-23T15:24:51.266Z,7.82
2022-12-23T15:27:30.066Z,5.80
2022-12-23T15:29:58.188Z,6.63
2022-12-23T15:32:31.087Z,6.72
2022-12-23T15:35:07.505Z,5.10
2022-12-23T15:37:39.895Z,5.70
2022-12-23T15:40:22.203Z,10.70
2022-12-23T15:42:49.526Z,9.48
2022-12-23T15:45:52.868Z,9.63
2022-12-23T15:48:31.734Z,7.65
2022-12-23T15:51:10.281Z,4.20
2022-12-23T15:53:40.355Z,8.38
2022-12-23T15:56:20.761Z,10.00
2022-12-23T15:58:48.903Z,11.38
2022-12-23T16:01:22.072Z,6.43
2022-12-23T16:03:58.014Z,12.45
2022-12-23T16:06:34.421Z,19.38
2022-12-23T16:09:30.202Z,14.45
2022-12-23T16:12:24.453Z,13.57
2022-12-23T16:15:01.346Z,15.50
2022-12-23T16:17:35.917Z,11.77
2022-12-23T16:20:22.123Z,13.48
2022-12-23T16:22:55.109Z,16.58
2022-12-23T16:25:31.263Z,14.43
2022-12-23T16:28:17.806Z,13.57
2022-12-23T16:30:49.493Z,14.25
2022-12-23T16:33:37.775Z,8.23
2022-12-23T16:36:23.813Z,17.63
2022-12-23T16:38:55.613Z,19.83
2022-12-23T16:41:23.186Z,18.58
2022-12-23T16:43:53.206Z,15.70
2022-12-23T16:46:23.578Z,10.70
2022-12-23T16:48:59.610Z,16.00
2022-12-23T16:51:28.813Z,13.63
2022-12-23T16:53:57.649Z,21.58
2022-12-23T16:56:28.544Z,18.80
2022-12-23T16:58:58.248Z,15.25
2022-12-23T17:01:31.723Z,15.40
2022-12-23T17:06:26.308Z,16.52
2022-12-23T17:08:54.141Z,15.07
2022-12-23T17:11:40.545Z,12.18
2022-12-23T17:14:19.348Z,16.55
2022-12-23T17:16:49.857Z,13.38
2022-12-23T17:19:23.368Z,18.42
2022-12-23T17:21:59.715Z,15.05
2022-12-23T17:24:27.477Z,15.75
2022-12-23T17:26:56.812Z,11.35
2022-12-23T17:29:27.068Z,20.55
2022-12-23T17:31:54.620Z,15.45
2022-12-23T17:34:24.270Z,16.70
2022-12-23T17:36:54.605Z,15.15
2022-12-23T17:39:22.290Z,22.73
2022-12-23T17:41:52.067Z,15.25
2022-12-23T17:44:22.033Z,14.63
2022-12-23T17:46:49.321Z,12.93
2022-12-23T17:49:18.809Z,12.95
2022-12-23T17:51:46.268Z,18.92
2022-12-23T17:54:27.535Z,14.40
2022-12-23T17:56:54.788Z,13.80
2022-12-23T17:59:26.390Z,14.02
2022-12-23T18:01:53.809Z,15.90
2022-12-23T18:04:21.198Z,15.02
2022-12-23T18:06:50.623Z,13.80
2022-12-23T18:09:21.312Z,14.15
2022-12-23T18:11:48.690Z,15.35
2022-12-23T18:14:26.745Z,9.50
2022-12-23T18:16:56.368Z,16.70
2022-12-23T18:19:24.125Z,10.25
2022-12-23T18:21:51.998Z,16.85
2022-12-23T18:24:24.140Z,22.83
2022-12-23T18:26:51.481Z,12.80
2022-12-23T18:29:26.048Z,21.10
2022-12-23T18:31:55.465Z,14.07
2022-12-23T18:34:22.835Z,21.83
2022-12-23T18:36:51.689Z,13.57
2022-12-23T18:39:19.902Z,19.33
2022-12-23T18:41:49.797Z,20.88
2022-12-23T18:44:21.177Z,22.38
2022-12-23T18:46:51.512Z,17.00
2022-12-23T18:49:21.070Z,18.65
2022-12-23T18:51:48.360Z,13.90
2022-12-23T18:54:16.241Z,23.02
2022-12-23T18:56:45.703Z,17.58
2022-12-23T18:59:21.378Z,16.02
2022-12-23T19:01:57.439Z,17.30
2022-12-23T19:04:25.741Z,16.98
2022-12-23T19:06:54.199Z,19.65
2022-12-23T19:09:25.949Z,16.63
2022-12-23T19:11:54.391Z,16.08
2022-12-23T19:14:26.572Z,12.27
2022-12-23T19:16:56.041Z,11.90
2022-12-23T19:19:23.333Z,15.50
2022-12-23T19:21:50.614Z,17.73
2022-12-23T19:24:18.098Z,18.40
2022-12-23T19:26:45.359Z,19.02
2022-12-23T19:29:15.128Z,22.10
2022-12-23T19:31:42.566Z,14.68
2022-12-23T19:34:14.938Z,17.35
2022-12-23T19:36:43.779Z,14.05
2022-12-23T19:39:17.286Z,13.15
2022-12-23T19:44:12.429Z,11.77
2022-12-23T19:46:39.706Z,20.35
2022-12-23T19:49:12.790Z,21.27
2022-12-23T19:51:43.193Z,10.40
2022-12-23T19:54:12.935Z,17.50
2022-12-23T19:56:40.262Z,17.30
2022-12-23T19:59:07.472Z,18.02
2022-12-23T20:01:36.867Z,15.93
2022-12-23T20:04:07.013Z,14.93
2022-12-23T20:06:39.989Z,22.50
2022-12-23T20:09:09.656Z,19.15
2022-12-23T20:11:42.390Z,18.48
2022-12-23T20:14:14.047Z,21.50
2022-12-23T20:16:44.935Z,12.27
2022-12-23T20:19:14.656Z,16.70
2022-12-23T20:21:47.119Z,22.63
2022-12-23T20:24:15.226Z,20.83
2022-12-23T20:26:42.891Z,13.93
2022-12-23T20:29:10.331Z,16.27
2022-12-23T20:31:41.447Z,14.15
2022-12-23T20:34:14.378Z,20.15
2022-12-23T20:36:41.728Z,14.77
2022-12-23T20:39:09.226Z,10.30
2022-12-23T20:41:38.635Z,14.10
2022-12-23T20:46:55.457Z,20.50
2022-12-23T20:49:22.787Z,14.50
2022-12-23T20:51:52.270Z,17.90
2022-12-23T20:54:19.610Z,21.27
2022-12-23T20:56:46.800Z,16.15
2022-12-23T20:59:14.069Z,16.02
2022-12-23T21:01:43.614Z,16.35
2022-12-23T21:04:17.708Z,15.23
2022-12-23T21:06:45.130Z,22.45
2022-12-23T21:09:16.178Z,20.00
2022-12-23T21:11:47.634Z,16.17
2022-12-23T21:14:18.398Z,16.95
2022-12-23T21:16:47.932Z,15.40
2022-12-23T21:19:20.608Z,21.98
2022-12-23T21:21:49.181Z,24.07
2022-12-23T21:24:17.235Z,18.38
2022-12-23T21:26:55.524Z,12.35
2022-12-23T21:29:28.344Z,17.33
2022-12-23T21:31:55.935Z,12.43
2022-12-23T21:34:25.553Z,21.80
2022-12-23T21:36:52.945Z,15.10
2022-12-23T21:39:22.712Z,14.70
2022-12-23T21:41:51.569Z,15.52
2022-12-23T21:44:18.996Z,18.08
2022-12-23T21:46:48.490Z,17.45
2022-12-23T21:49:16.026Z,21.20
2022-12-23T21:51:43.346Z,10.75
2022-12-23T21:54:13.966Z,15.02
2022-12-23T21:56:42.091Z,22.80
2022-12-23T21:59:13.584Z,27.42
2022-12-23T22:01:42.103Z,21.40
2022-12-23T22:04:12.405Z,15.40
2022-12-23T22:06:43.619Z,21.85
2022-12-23T22:09:13.943Z,24.20
2022-12-23T22:11:44.372Z,20.65
2022-12-23T22:14:13.722Z,23.80
2022-12-23T22:16:41.081Z,18.15
2022-12-23T22:19:11.584Z,21.98
2022-12-23T22:21:42.527Z,16.83
2022-12-23T22:24:10.162Z,24.25
2022-12-23T22:26:41.082Z,17.15
2022-12-23T22:29:11.306Z,18.75
2022-12-23T22:31:44.400Z,20.48
2022-12-23T22:34:15.007Z,26.05
2022-12-23T22:36:42.582Z,22.92
2022-12-23T22:39:20.000Z,21.83
2022-12-23T22:41:54.404Z,21.55
2022-12-23T22:44:22.039Z,25.52
2022-12-23T22:46:51.836Z,19.38
2022-12-23T22:49:19.270Z,14.80
2022-12-23T22:51:46.584Z,17.17
2022-12-23T22:54:14.299Z,15.88
2022-12-23T22:56:46.421Z,32.13
2022-12-23T22:59:21.074Z,18.60
2022-12-23T23:01:51.935Z,18.90
2022-12-23T23:04:19.689Z,14.50
2022-12-23T23:06:46.973Z,26.10
2022-12-23T23:09:17.193Z,22.02
2022-12-23T23:11:47.613Z,18.80
2022-12-23T23:14:15.672Z,23.52
2022-12-23T23:16:47.708Z,21.95
2022-12-23T23:19:16.412Z,16.65
2022-12-23T23:21:43.725Z,19.10
2022-12-23T23:24:11.968Z,18.92
2022-12-23T23:26:39.474Z,17.30
2022-12-23T23:29:08.913Z,18.35
2022-12-23T23:31:42.286Z,17.38
2022-12-23T23:34:16.005Z,21.17
2022-12-23T23:36:43.515Z,20.58
2022-12-23T23:39:13.217Z,21.13
2022-12-23T23:41:43.397Z,17.08
2022-12-23T23:44:11.952Z,21.02
2022-12-23T23:46:39.731Z,18.67
2022-12-23T23:49:11.977Z,11.43
2022-12-23T23:51:39.742Z,19.88
2022-12-23T23:54:09.901Z,20.92
2022-12-23T23:56:41.849Z,19.00
2022-12-23T23:59:09.288Z,17.15
